Terminal Aerodrome Forecast
Issued by NWS

Home | Current Version | Previous Version | Text Only | Print | Product List | Glossary On
Versions: 1 2 3 4 5 6 7 8 9 10 11 12 13 14 15 16 17 18 19 20 21 22 23 24 25 26 27 28 29
000
FTUS41 KBOX 032326
TAFBED
TAF
KBED 032326Z 0400/0424 19013KT P6SM FEW070
     FM040600 20006KT P6SM VCTS SCT060CB
     FM041200 22006KT P6SM VCSH BKN050
     FM041600 23010KT P6SM VCSH BKN050
     FM042100 24011G19KT P6SM VCSH SCT060
     FM042300 25007KT P6SM VCSH SCT060=

USA.gov is the U.S. government's official web portal to all federal, state and local government web resources and services.